createdAt,value
2022-08-26T00:01:52.124Z,21.40
2022-08-26T00:04:19.365Z,21.40
2022-08-26T00:06:46.534Z,21.40
2022-08-26T00:09:16.188Z,21.30
2022-08-26T00:11:47.201Z,21.30
2022-08-26T00:14:15.221Z,21.30
2022-08-26T00:16:47.545Z,21.30
2022-08-26T00:19:17.729Z,21.30
2022-08-26T00:21:46.379Z,21.30
2022-08-26T00:24:16.233Z,21.30
2022-08-26T00:26:43.705Z,21.30
2022-08-26T00:29:12.173Z,21.30
2022-08-26T00:31:39.346Z,21.30
2022-08-26T00:34:07.091Z,21.20
2022-08-26T00:36:36.831Z,21.20
2022-08-26T00:39:04.898Z,21.10
2022-08-26T00:41:34.209Z,21.10
2022-08-26T00:44:01.065Z,21.10
2022-08-26T00:46:31.576Z,21.00
2022-08-26T00:49:11.971Z,21.00
2022-08-26T00:51:52.891Z,21.00
2022-08-26T00:54:23.830Z,21.00
2022-08-26T00:57:02.026Z,20.90
2022-08-26T00:59:32.705Z,20.90
2022-08-26T01:02:02.867Z,20.80
2022-08-26T01:04:33.393Z,20.80
2022-08-26T01:07:00.828Z,20.70
2022-08-26T01:09:28.172Z,20.70
2022-08-26T01:11:58.835Z,20.60
2022-08-26T01:14:30.088Z,20.60
2022-08-26T01:16:57.011Z,20.50
2022-08-26T01:19:31.055Z,20.40
2022-08-26T01:22:02.382Z,20.30
2022-08-26T01:24:30.814Z,20.30
2022-08-26T01:27:05.100Z,20.30
2022-08-26T01:29:34.808Z,20.30
2022-08-26T01:32:05.147Z,20.30
2022-08-26T01:34:36.107Z,20.30
2022-08-26T01:37:14.162Z,20.30
2022-08-26T01:39:44.855Z,20.30
2022-08-26T01:42:15.044Z,20.30
2022-08-26T01:44:47.146Z,20.30
2022-08-26T01:47:17.236Z,20.20
2022-08-26T01:49:45.552Z,20.20
2022-08-26T01:52:19.501Z,20.20
2022-08-26T01:54:52.011Z,20.20
2022-08-26T01:57:21.092Z,20.20
2022-08-26T01:59:50.299Z,20.10
2022-08-26T02:02:17.804Z,20.10
2022-08-26T02:05:02.245Z,20.10
2022-08-26T02:07:30.170Z,20.10
2022-08-26T02:10:00.224Z,20.10
2022-08-26T02:12:27.692Z,20.00
2022-08-26T02:14:57.964Z,20.00
2022-08-26T02:17:34.952Z,20.00
2022-08-26T02:20:03.531Z,20.00
2022-08-26T02:22:31.458Z,19.90
2022-08-26T02:25:11.619Z,19.90
2022-08-26T02:27:40.333Z,19.80
2022-08-26T02:30:12.180Z,19.80
2022-08-26T02:32:41.340Z,19.80
2022-08-26T02:35:10.186Z,19.80
2022-08-26T02:37:37.406Z,19.80
2022-08-26T02:40:06.821Z,19.70
2022-08-26T02:42:33.736Z,19.70
2022-08-26T02:45:01.139Z,19.70
2022-08-26T02:47:32.383Z,19.70
2022-08-26T02:50:00.312Z,19.70
2022-08-26T02:52:27.849Z,19.70
2022-08-26T02:54:57.666Z,19.70
2022-08-26T02:57:24.693Z,19.70
2022-08-26T02:59:51.875Z,19.70
2022-08-26T03:02:21.583Z,19.60
2022-08-26T03:04:57.377Z,19.60
2022-08-26T03:07:28.053Z,19.60
2022-08-26T03:09:55.163Z,19.60
2022-08-26T03:12:22.292Z,19.60
2022-08-26T03:14:49.244Z,19.60
2022-08-26T03:17:16.304Z,19.60
2022-08-26T03:19:43.373Z,19.60
2022-08-26T03:22:11.501Z,19.60
2022-08-26T03:24:41.746Z,19.60
2022-08-26T03:27:13.445Z,19.60
2022-08-26T03:30:00.424Z,19.60
2022-08-26T03:32:28.100Z,19.60
2022-08-26T03:34:56.515Z,19.50
2022-08-26T03:37:23.527Z,19.50
2022-08-26T03:39:50.464Z,19.50
2022-08-26T03:42:17.615Z,19.50
2022-08-26T03:44:48.797Z,19.60
2022-08-26T03:47:16.006Z,19.60
2022-08-26T03:49:42.872Z,19.60
2022-08-26T03:52:10.431Z,19.60
2022-08-26T03:54:37.460Z,19.60
2022-08-26T03:57:04.676Z,19.60
2022-08-26T03:59:32.070Z,19.60
2022-08-26T04:01:59.094Z,19.60
2022-08-26T04:04:26.057Z,19.50
2022-08-26T04:07:01.025Z,19.50
2022-08-26T04:09:28.114Z,19.50
2022-08-26T04:11:55.707Z,19.40
2022-08-26T04:14:25.865Z,19.40
2022-08-26T04:16:53.825Z,19.30
2022-08-26T04:19:23.584Z,19.30
2022-08-26T04:21:53.190Z,19.30
2022-08-26T04:24:23.696Z,19.20
2022-08-26T04:26:51.525Z,19.20
2022-08-26T04:29:23.664Z,19.30
2022-08-26T04:31:55.256Z,19.30
2022-08-26T04:34:28.913Z,19.30
2022-08-26T04:36:57.789Z,19.40
2022-08-26T04:39:25.262Z,19.40
2022-08-26T04:41:55.076Z,19.50
2022-08-26T04:44:22.562Z,19.50
2022-08-26T04:46:51.498Z,19.60
2022-08-26T04:49:18.802Z,19.60
2022-08-26T04:51:45.997Z,19.60
2022-08-26T04:54:14.836Z,19.60
2022-08-26T04:56:45.370Z,19.60
2022-08-26T04:59:17.137Z,19.60
2022-08-26T05:01:48.583Z,19.60
2022-08-26T05:04:18.981Z,19.60
2022-08-26T05:06:48.252Z,19.60
2022-08-26T05:09:15.882Z,19.70
2022-08-26T05:11:43.016Z,19.80
2022-08-26T05:14:10.075Z,19.80
2022-08-26T05:16:37.639Z,19.90
2022-08-26T05:19:08.419Z,20.00
2022-08-26T05:21:36.431Z,20.10
2022-08-26T05:24:04.827Z,20.10
2022-08-26T05:26:32.112Z,20.20
2022-08-26T05:28:59.680Z,20.30
2022-08-26T05:31:30.148Z,20.50
2022-08-26T05:33:58.326Z,20.60
2022-08-26T05:36:28.479Z,20.70
2022-08-26T05:38:56.205Z,20.70
2022-08-26T05:41:34.432Z,20.80
2022-08-26T05:44:06.383Z,20.90
2022-08-26T05:46:34.535Z,21.10
2022-08-26T05:49:01.573Z,21.10
2022-08-26T05:51:30.420Z,21.20
2022-08-26T05:53:58.674Z,21.40
2022-08-26T05:56:27.681Z,21.50
2022-08-26T05:58:58.452Z,21.60
2022-08-26T06:01:27.698Z,21.80
2022-08-26T06:03:59.742Z,21.90
2022-08-26T06:06:31.363Z,22.10
2022-08-26T06:09:00.470Z,22.20
2022-08-26T06:11:29.651Z,22.40
2022-08-26T06:14:02.702Z,22.70
2022-08-26T06:16:30.947Z,22.90
2022-08-26T06:18:57.879Z,23.00
2022-08-26T06:21:28.776Z,23.20
2022-08-26T06:24:17.470Z,23.40
2022-08-26T06:26:51.660Z,23.50
2022-08-26T06:29:24.334Z,23.70
2022-08-26T06:31:56.354Z,23.90
2022-08-26T06:34:29.773Z,24.00
2022-08-26T06:36:59.488Z,24.20
2022-08-26T06:39:26.331Z,24.20
2022-08-26T06:41:53.165Z,24.40
2022-08-26T06:44:21.034Z,24.40
2022-08-26T06:46:50.473Z,24.50
2022-08-26T06:49:18.473Z,24.60
2022-08-26T06:51:55.308Z,24.70
2022-08-26T06:54:22.342Z,24.80
2022-08-26T06:56:49.454Z,24.80
2022-08-26T06:59:16.545Z,24.90
2022-08-26T07:01:45.132Z,25.10
2022-08-26T07:04:15.754Z,25.30
2022-08-26T07:06:49.261Z,25.50
2022-08-26T07:09:17.392Z,25.80
2022-08-26T07:11:45.499Z,26.10
2022-08-26T07:14:13.056Z,26.40
2022-08-26T07:16:41.296Z,26.70
2022-08-26T07:19:11.043Z,26.90
2022-08-26T07:21:41.621Z,27.20
2022-08-26T07:24:10.939Z,27.50
2022-08-26T07:26:43.006Z,27.80
2022-08-26T07:29:12.567Z,28.00
2022-08-26T07:31:42.250Z,28.40
2022-08-26T07:34:13.534Z,28.70
2022-08-26T07:36:41.543Z,29.00
2022-08-26T07:39:08.981Z,29.30
2022-08-26T07:41:36.973Z,29.80
2022-08-26T07:44:05.451Z,30.10
2022-08-26T07:46:32.697Z,30.60
2022-08-26T07:48:59.732Z,31.40
2022-08-26T07:51:27.914Z,32.10
2022-08-26T07:53:55.336Z,32.50
2022-08-26T07:56:23.399Z,33.00
2022-08-26T07:58:52.181Z,33.50
2022-08-26T08:01:25.827Z,34.40
2022-08-26T08:03:54.071Z,35.00
2022-08-26T08:06:27.135Z,36.00
2022-08-26T08:08:55.416Z,37.10
2022-08-26T08:11:23.927Z,37.80
2022-08-26T08:13:56.480Z,38.70
2022-08-26T08:16:28.376Z,39.40
2022-08-26T08:18:59.428Z,40.40
2022-08-26T08:21:28.971Z,41.30
2022-08-26T08:23:57.256Z,41.70
2022-08-26T08:26:26.165Z,42.30
2022-08-26T08:28:57.992Z,42.80
2022-08-26T08:34:19.220Z,43.20
2022-08-26T08:36:48.680Z,43.70
2022-08-26T08:39:17.540Z,44.30
2022-08-26T08:41:53.871Z,44.60
2022-08-26T08:47:03.728Z,45.30
2022-08-26T08:49:32.558Z,45.70
2022-08-26T08:52:06.803Z,46.10
2022-08-26T08:54:34.022Z,46.80
2022-08-26T08:57:35.944Z,47.20
2022-08-26T09:00:09.220Z,47.20
2022-08-26T09:02:49.837Z,47.20
2022-08-26T09:05:19.435Z,47.50
2022-08-26T09:07:55.754Z,47.80
2022-08-26T09:10:32.276Z,47.90
2022-08-26T09:13:00.965Z,48.10
2022-08-26T09:15:57.693Z,48.00
2022-08-26T09:18:33.472Z,47.80
2022-08-26T09:21:12.675Z,47.60
2022-08-26T09:23:42.842Z,47.30
2022-08-26T09:26:24.722Z,47.30
2022-08-26T09:29:08.686Z,47.50
2022-08-26T09:31:37.699Z,47.50
2022-08-26T09:34:08.080Z,47.60
2022-08-26T09:36:44.467Z,47.50
2022-08-26T09:39:33.689Z,47.70
2022-08-26T09:42:18.977Z,47.60
2022-08-26T09:44:54.699Z,47.90
2022-08-26T09:47:32.243Z,48.10
2022-08-26T09:50:09.836Z,48.60
2022-08-26T09:52:40.494Z,49.10
2022-08-26T09:55:09.690Z,49.20
2022-08-26T09:57:45.898Z,49.10
2022-08-26T10:00:35.197Z,48.20
2022-08-26T10:03:12.725Z,46.80
2022-08-26T10:06:02.626Z,46.90
2022-08-26T10:08:31.049Z,47.40
2022-08-26T10:11:00.388Z,47.90
2022-08-26T10:13:37.535Z,48.30
2022-08-26T10:16:15.510Z,48.50
2022-08-26T10:18:48.826Z,48.80
2022-08-26T10:21:31.994Z,48.90
2022-08-26T10:24:02.010Z,49.20
2022-08-26T10:26:37.750Z,49.40
2022-08-26T10:29:22.574Z,49.60
2022-08-26T10:31:55.198Z,49.80
2022-08-26T10:34:29.438Z,49.90
2022-08-26T10:37:16.213Z,49.70
2022-08-26T10:40:08.404Z,49.70
2022-08-26T10:42:37.605Z,50.10
2022-08-26T10:45:17.665Z,50.50
2022-08-26T10:47:57.442Z,50.40
2022-08-26T10:50:37.852Z,50.10
2022-08-26T10:53:13.524Z,50.50
2022-08-26T10:56:25.352Z,50.30
2022-08-26T10:59:19.712Z,50.40
2022-08-26T11:01:55.177Z,50.30
2022-08-26T11:04:45.775Z,50.10
2022-08-26T11:07:40.102Z,49.80
2022-08-26T11:10:16.228Z,49.60
2022-08-26T11:12:45.228Z,49.70
2022-08-26T11:15:24.538Z,49.60
2022-08-26T11:17:51.768Z,49.50
2022-08-26T11:20:47.122Z,49.70
2022-08-26T11:23:23.106Z,50.20
2022-08-26T11:25:57.241Z,50.70
2022-08-26T11:28:44.650Z,50.90
2022-08-26T11:31:23.277Z,49.50
2022-08-26T11:33:57.091Z,46.70
2022-08-26T11:36:41.649Z,43.80
2022-08-26T11:39:29.815Z,40.90
2022-08-26T11:42:00.060Z,37.70
2022-08-26T11:44:37.223Z,35.10
2022-08-26T11:47:05.739Z,33.00
2022-08-26T11:49:38.429Z,31.00
2022-08-26T11:52:21.083Z,29.20
2022-08-26T11:55:24.096Z,27.90
2022-08-26T11:57:56.378Z,26.60
2022-08-26T12:00:33.407Z,25.80
2022-08-26T12:03:06.445Z,25.00
2022-08-26T12:05:43.372Z,24.20
2022-08-26T12:08:13.566Z,23.60
2022-08-26T12:10:40.527Z,23.40
2022-08-26T12:13:17.729Z,23.50
2022-08-26T12:15:53.312Z,23.50
2022-08-26T12:18:29.529Z,23.30
2022-08-26T12:21:12.182Z,23.10
2022-08-26T12:23:41.562Z,23.20
2022-08-26T12:26:15.462Z,23.40
2022-08-26T12:28:49.438Z,23.50
2022-08-26T12:31:35.119Z,23.70
2022-08-26T12:34:15.887Z,23.80
2022-08-26T12:36:52.937Z,23.90
2022-08-26T12:39:30.577Z,23.90
2022-08-26T12:42:18.801Z,24.00
2022-08-26T12:44:58.680Z,24.00
2022-08-26T12:47:42.263Z,24.20
2022-08-26T12:50:21.400Z,24.40
2022-08-26T12:53:17.559Z,24.60
2022-08-26T12:55:49.858Z,24.70
2022-08-26T12:58:16.804Z,24.70
2022-08-26T13:00:48.509Z,24.70
2022-08-26T13:03:34.406Z,24.70
2022-08-26T13:06:23.528Z,24.80
2022-08-26T13:08:52.590Z,25.00
2022-08-26T13:11:24.688Z,25.20
2022-08-26T13:14:07.391Z,25.50
2022-08-26T13:16:35.622Z,25.80
2022-08-26T13:19:06.219Z,26.10
2022-08-26T13:21:41.698Z,26.40
2022-08-26T13:24:14.874Z,26.70
2022-08-26T13:26:44.096Z,27.00
2022-08-26T13:29:12.031Z,27.20
2022-08-26T13:31:41.991Z,27.50
2022-08-26T13:34:11.569Z,27.60
2022-08-26T13:36:39.164Z,27.80
2022-08-26T13:39:06.800Z,28.00
2022-08-26T13:41:33.710Z,28.10
2022-08-26T13:44:00.559Z,28.30
2022-08-26T13:46:28.773Z,28.50
2022-08-26T13:48:56.962Z,28.60
2022-08-26T13:51:24.982Z,28.70
2022-08-26T13:53:53.317Z,28.70
2022-08-26T13:56:21.469Z,28.80
2022-08-26T13:58:48.395Z,28.70
2022-08-26T14:01:17.507Z,28.70
2022-08-26T14:03:44.736Z,28.70
2022-08-26T14:06:12.312Z,28.60
2022-08-26T14:08:40.455Z,28.60
2022-08-26T14:11:07.873Z,28.50
2022-08-26T14:13:35.484Z,28.40
2022-08-26T14:16:04.564Z,28.40
2022-08-26T14:18:41.817Z,28.40
2022-08-26T14:21:12.962Z,28.50
2022-08-26T14:23:40.228Z,28.50
2022-08-26T14:26:08.213Z,28.60
2022-08-26T14:28:36.148Z,28.70
2022-08-26T14:31:04.482Z,28.80
2022-08-26T14:33:37.502Z,29.00
2022-08-26T14:36:24.769Z,29.00
2022-08-26T14:38:51.932Z,29.10
2022-08-26T14:41:19.926Z,29.10
2022-08-26T14:44:14.919Z,29.10
2022-08-26T14:46:43.418Z,29.10
2022-08-26T14:49:10.874Z,29.10
2022-08-26T14:51:38.744Z,29.10
2022-08-26T14:54:12.179Z,29.10
2022-08-26T14:56:47.397Z,29.10
2022-08-26T14:59:18.511Z,29.10
2022-08-26T15:01:45.680Z,29.00
2022-08-26T15:04:12.741Z,29.00
2022-08-26T15:06:40.072Z,29.00
2022-08-26T15:09:07.299Z,29.00
2022-08-26T15:11:34.379Z,29.00
2022-08-26T15:14:01.318Z,29.00
2022-08-26T15:16:29.294Z,28.90
2022-08-26T15:18:56.758Z,28.90
2022-08-26T15:21:23.831Z,28.90
2022-08-26T15:23:52.151Z,28.80
2022-08-26T15:26:20.119Z,28.60
2022-08-26T15:28:47.504Z,28.50
2022-08-26T15:31:15.001Z,28.50
2022-08-26T15:33:42.623Z,28.40
2022-08-26T15:36:10.384Z,28.30
2022-08-26T15:38:40.343Z,28.20
2022-08-26T15:41:08.775Z,27.80
2022-08-26T15:43:37.162Z,27.20
2022-08-26T15:46:04.558Z,26.80
2022-08-26T15:48:34.726Z,26.40
2022-08-26T15:51:01.841Z,26.10
2022-08-26T15:53:31.803Z,25.80
2022-08-26T15:55:59.820Z,25.60
2022-08-26T15:58:28.045Z,25.40
2022-08-26T16:00:56.004Z,25.20
2022-08-26T16:03:23.154Z,25.00
2022-08-26T16:05:50.665Z,24.90
2022-08-26T16:08:17.703Z,24.70
2022-08-26T16:10:50.099Z,24.40
2022-08-26T16:13:20.212Z,24.30
2022-08-26T16:15:48.712Z,24.20
2022-08-26T16:18:16.510Z,24.00
2022-08-26T16:21:05.013Z,23.90
2022-08-26T16:23:39.982Z,23.60
2022-08-26T16:26:11.811Z,23.40
2022-08-26T16:28:39.408Z,23.20
2022-08-26T16:31:07.177Z,23.00
2022-08-26T16:33:34.297Z,22.90
2022-08-26T16:36:01.496Z,22.80
2022-08-26T16:38:28.401Z,22.80
2022-08-26T16:40:55.230Z,22.80
2022-08-26T16:43:26.206Z,22.70
2022-08-26T16:45:53.657Z,22.70
2022-08-26T16:48:26.102Z,22.60
2022-08-26T16:51:12.584Z,22.50
2022-08-26T16:53:48.248Z,22.50
2022-08-26T16:56:20.127Z,22.30
2022-08-26T16:59:06.112Z,22.20
2022-08-26T17:01:36.937Z,22.10
2022-08-26T17:04:18.457Z,22.00
2022-08-26T17:06:52.318Z,22.00
2022-08-26T17:09:19.794Z,21.90
2022-08-26T17:11:46.996Z,21.90
2022-08-26T17:14:13.926Z,21.80
2022-08-26T17:16:55.042Z,21.80
2022-08-26T17:19:23.073Z,21.90
2022-08-26T17:21:50.127Z,21.80
2022-08-26T17:24:17.063Z,21.70
2022-08-26T17:26:47.815Z,21.70
2022-08-26T17:29:17.552Z,21.70
2022-08-26T17:31:44.486Z,21.60
2022-08-26T17:34:11.320Z,21.60
2022-08-26T17:36:38.287Z,21.60
2022-08-26T17:39:11.180Z,21.50
2022-08-26T17:41:43.325Z,21.50
2022-08-26T17:44:11.041Z,21.40
2022-08-26T17:46:41.555Z,21.30
2022-08-26T17:49:08.525Z,21.20
2022-08-26T17:51:35.469Z,21.10
2022-08-26T17:54:02.550Z,21.10
2022-08-26T17:56:31.783Z,21.00
2022-08-26T17:59:02.353Z,21.00
2022-08-26T18:01:31.266Z,21.00
2022-08-26T18:04:01.348Z,21.00
2022-08-26T18:06:28.949Z,21.00
2022-08-26T18:08:56.082Z,21.00
2022-08-26T18:11:24.446Z,21.00
2022-08-26T18:13:51.667Z,21.00
2022-08-26T18:16:19.987Z,21.00
2022-08-26T18:18:47.842Z,21.00
2022-08-26T18:21:20.754Z,21.10
2022-08-26T18:23:49.050Z,21.10
2022-08-26T18:26:31.750Z,21.10
2022-08-26T18:28:59.158Z,21.10
2022-08-26T18:31:26.692Z,21.10
2022-08-26T18:33:53.775Z,21.20
2022-08-26T18:36:27.115Z,21.20
2022-08-26T18:38:55.143Z,21.10
2022-08-26T18:41:24.056Z,21.10
2022-08-26T18:43:53.104Z,21.00
2022-08-26T18:46:23.050Z,20.90
2022-08-26T18:48:51.179Z,20.90
2022-08-26T18:51:21.710Z,20.90
2022-08-26T18:53:48.783Z,20.90
2022-08-26T18:56:21.128Z,20.90
2022-08-26T18:58:48.217Z,20.90
2022-08-26T19:01:17.199Z,20.90
2022-08-26T19:03:44.807Z,21.00
2022-08-26T19:06:26.579Z,21.00
2022-08-26T19:08:53.877Z,21.00
2022-08-26T19:11:31.618Z,20.90
2022-08-26T19:14:04.339Z,20.90
2022-08-26T19:16:31.313Z,20.80
2022-08-26T19:19:00.632Z,20.80
2022-08-26T19:21:28.516Z,20.80
2022-08-26T19:24:00.141Z,20.90
2022-08-26T19:26:28.717Z,20.90
2022-08-26T19:28:56.231Z,20.90
2022-08-26T19:31:23.453Z,20.90
2022-08-26T19:33:50.568Z,20.90
2022-08-26T19:36:22.722Z,20.90
2022-08-26T19:38:50.424Z,21.00
2022-08-26T19:41:19.925Z,21.00
2022-08-26T19:43:47.578Z,21.00
2022-08-26T19:46:17.860Z,21.00
2022-08-26T19:48:45.260Z,21.00
2022-08-26T19:51:18.339Z,21.00
2022-08-26T19:53:47.799Z,21.00
2022-08-26T19:56:16.075Z,21.00
2022-08-26T19:58:43.356Z,20.90
2022-08-26T20:01:11.452Z,20.80
2022-08-26T20:03:39.015Z,20.80
2022-08-26T20:06:08.481Z,20.70
2022-08-26T20:08:38.048Z,20.70
2022-08-26T20:11:09.309Z,20.70
2022-08-26T20:13:36.955Z,20.70
2022-08-26T20:16:04.515Z,20.70
2022-08-26T20:19:00.891Z,20.70
2022-08-26T20:21:30.027Z,20.80
2022-08-26T20:24:07.207Z,20.80
2022-08-26T20:26:35.648Z,20.80
2022-08-26T20:29:03.314Z,20.80
2022-08-26T20:31:31.064Z,20.90
2022-08-26T20:33:58.242Z,20.90
2022-08-26T20:36:29.402Z,20.90
2022-08-26T20:38:57.176Z,20.90
2022-08-26T20:41:25.671Z,21.00
2022-08-26T20:43:56.399Z,21.00
2022-08-26T20:46:25.043Z,21.00
2022-08-26T20:48:53.294Z,20.90
2022-08-26T20:51:21.006Z,20.80
2022-08-26T20:53:47.908Z,20.80
2022-08-26T20:56:16.014Z,20.80
2022-08-26T20:58:43.049Z,20.80
2022-08-26T21:01:26.790Z,20.80
2022-08-26T21:03:56.872Z,20.80
2022-08-26T21:06:24.344Z,20.70
2022-08-26T21:08:58.311Z,20.70
2022-08-26T21:11:26.321Z,20.70
2022-08-26T21:14:15.989Z,20.70
2022-08-26T21:16:47.561Z,20.70
2022-08-26T21:19:21.344Z,20.70
2022-08-26T21:21:48.691Z,20.70
2022-08-26T21:24:18.239Z,20.70
2022-08-26T21:26:45.509Z,20.80
2022-08-26T21:29:14.201Z,20.90
2022-08-26T21:31:46.977Z,20.90
2022-08-26T21:34:17.116Z,20.90
2022-08-26T21:36:47.700Z,20.90
2022-08-26T21:39:14.740Z,20.80
2022-08-26T21:41:43.348Z,20.80
2022-08-26T21:44:11.799Z,20.60
2022-08-26T21:46:38.758Z,20.50
2022-08-26T21:49:08.075Z,20.40
2022-08-26T21:51:40.274Z,20.50
2022-08-26T21:54:11.159Z,20.50
2022-08-26T21:56:44.064Z,20.50
2022-08-26T21:59:12.389Z,20.50
2022-08-26T22:01:39.493Z,20.40
2022-08-26T22:04:08.938Z,20.40
2022-08-26T22:06:43.579Z,20.40
2022-08-26T22:09:11.872Z,20.40
2022-08-26T22:11:46.036Z,20.50
2022-08-26T22:14:14.276Z,20.60
2022-08-26T22:16:41.181Z,20.60
2022-08-26T22:19:17.525Z,20.60
2022-08-26T22:21:45.239Z,20.60
2022-08-26T22:24:12.424Z,20.70
2022-08-26T22:26:41.025Z,20.70
2022-08-26T22:29:08.215Z,20.80
2022-08-26T22:31:43.495Z,20.80
2022-08-26T22:34:13.006Z,20.80
2022-08-26T22:36:44.304Z,20.90
2022-08-26T22:39:17.657Z,20.90
2022-08-26T22:41:45.247Z,20.90
2022-08-26T22:44:12.493Z,20.90
2022-08-26T22:46:40.766Z,20.90
2022-08-26T22:49:10.323Z,20.80
2022-08-26T22:51:37.313Z,20.90
2022-08-26T22:54:05.527Z,20.90
2022-08-26T22:56:32.538Z,20.90
2022-08-26T22:58:59.351Z,20.90
2022-08-26T23:01:26.351Z,20.90
2022-08-26T23:03:59.691Z,20.90
2022-08-26T23:06:40.073Z,20.90
2022-08-26T23:09:16.884Z,20.80
2022-08-26T23:11:48.395Z,20.80
2022-08-26T23:14:17.627Z,20.80
2022-08-26T23:16:44.935Z,20.80
2022-08-26T23:19:14.593Z,20.80
2022-08-26T23:21:41.519Z,20.80
2022-08-26T23:24:09.090Z,20.90
2022-08-26T23:26:37.199Z,20.80
2022-08-26T23:29:05.981Z,20.80
2022-08-26T23:31:33.249Z,20.80
2022-08-26T23:34:18.722Z,20.70
2022-08-26T23:36:46.347Z,20.60
2022-08-26T23:39:14.707Z,20.50
2022-08-26T23:41:43.106Z,20.50
2022-08-26T23:44:16.642Z,20.50
2022-08-26T23:46:43.551Z,20.40
2022-08-26T23:49:10.442Z,20.40
2022-08-26T23:51:57.231Z,20.40
2022-08-26T23:54:24.481Z,20.40
2022-08-26T23:56:51.323Z,20.30
2022-08-26T23:59:18.182Z,20.30
